createdAt,value
2023-03-22T00:01:23.006Z,19.76
2023-03-22T00:04:26.915Z,19.79
2023-03-22T00:07:30.298Z,19.69
2023-03-22T00:10:35.624Z,19.58
2023-03-22T00:13:39.020Z,19.95
2023-03-22T00:16:42.335Z,19.57
2023-03-22T00:19:45.616Z,19.55
2023-03-22T00:22:49.544Z,19.63
2023-03-22T00:25:53.083Z,19.66
2023-03-22T00:28:56.542Z,19.75
2023-03-22T00:32:00.853Z,19.60
2023-03-22T00:35:07.420Z,19.53
2023-03-22T00:38:13.960Z,19.67
2023-03-22T00:41:19.547Z,19.58
2023-03-22T00:44:22.844Z,19.52
2023-03-22T00:47:27.587Z,19.59
2023-03-22T00:50:31.640Z,19.52
2023-03-22T00:53:35.235Z,19.79
2023-03-22T00:56:51.551Z,19.57
2023-03-22T00:59:54.885Z,19.36
2023-03-22T01:02:58.311Z,19.34
2023-03-22T01:06:01.578Z,19.30
2023-03-22T01:09:05.035Z,19.36
2023-03-22T01:12:09.413Z,19.19
2023-03-22T01:15:12.986Z,19.35
2023-03-22T01:18:16.846Z,19.39
2023-03-22T01:21:20.116Z,19.39
2023-03-22T01:24:25.190Z,19.32
2023-03-22T01:27:28.446Z,19.51
2023-03-22T01:30:31.661Z,19.06
2023-03-22T01:33:35.010Z,18.83
2023-03-22T01:36:39.203Z,19.04
2023-03-22T01:39:42.637Z,18.68
2023-03-22T01:42:46.754Z,18.70
2023-03-22T01:45:52.508Z,18.76
2023-03-22T01:48:55.746Z,18.68
2023-03-22T01:52:03.782Z,18.95
2023-03-22T01:55:08.001Z,18.71
2023-03-22T01:58:11.393Z,18.59
2023-03-22T02:01:14.742Z,18.47
2023-03-22T02:04:23.847Z,18.46
2023-03-22T02:07:27.475Z,18.56
2023-03-22T02:10:31.098Z,18.29
2023-03-22T02:13:52.718Z,18.27
2023-03-22T02:16:59.021Z,18.40
2023-03-22T02:20:39.605Z,18.29
2023-03-22T02:24:13.862Z,18.50
2023-03-22T02:27:24.483Z,18.61
2023-03-22T02:31:00.858Z,18.30
2023-03-22T02:34:34.950Z,18.19
2023-03-22T02:38:11.259Z,17.97
2023-03-22T02:41:31.328Z,18.18
2023-03-22T02:45:12.882Z,17.76
2023-03-22T02:48:30.233Z,17.91
2023-03-22T02:51:42.120Z,17.97
2023-03-22T02:54:56.834Z,17.64
2023-03-22T02:58:19.462Z,17.77
2023-03-22T03:01:30.276Z,17.99
2023-03-22T03:04:39.779Z,17.94
2023-03-22T03:07:46.533Z,17.71
2023-03-22T03:10:50.154Z,17.72
2023-03-22T03:13:53.808Z,17.53
2023-03-22T03:17:33.056Z,17.50
2023-03-22T03:20:59.912Z,17.41
2023-03-22T03:24:21.328Z,17.19
2023-03-22T03:27:36.957Z,17.02
2023-03-22T03:30:53.688Z,16.96
2023-03-22T03:34:30.412Z,16.98
2023-03-22T03:37:42.162Z,17.06
2023-03-22T03:40:51.749Z,16.79
2023-03-22T03:43:56.636Z,16.90
2023-03-22T03:47:01.162Z,16.79
2023-03-22T03:50:05.934Z,16.98
2023-03-22T03:53:09.426Z,16.86
2023-03-22T03:56:12.932Z,17.09
2023-03-22T03:59:19.954Z,16.95
2023-03-22T04:02:25.817Z,16.76
2023-03-22T04:05:33.908Z,17.03
2023-03-22T04:08:37.235Z,17.14
2023-03-22T04:11:40.461Z,17.35
2023-03-22T04:14:43.903Z,17.06
2023-03-22T04:17:50.869Z,17.17
2023-03-22T04:20:54.880Z,17.19
2023-03-22T04:23:58.498Z,17.07
2023-03-22T04:27:02.927Z,17.12
2023-03-22T04:30:08.221Z,17.11
2023-03-22T04:33:11.452Z,17.14
2023-03-22T04:36:15.585Z,16.83
2023-03-22T04:39:19.037Z,16.74
2023-03-22T04:42:22.245Z,16.85
2023-03-22T04:45:25.733Z,17.04
2023-03-22T04:48:29.687Z,17.17
2023-03-22T04:51:34.664Z,17.26
2023-03-22T04:54:38.691Z,16.96
2023-03-22T04:57:44.140Z,16.89
2023-03-22T05:00:49.842Z,16.92
2023-03-22T05:03:53.166Z,17.06
2023-03-22T05:06:56.652Z,17.05
2023-03-22T05:10:00.111Z,16.90
2023-03-22T05:13:03.617Z,16.97
2023-03-22T05:16:08.898Z,16.86
2023-03-22T05:19:12.349Z,16.97
2023-03-22T05:22:15.715Z,17.16
2023-03-22T05:25:19.126Z,17.19
2023-03-22T05:28:25.125Z,17.12
2023-03-22T05:31:29.797Z,17.00
2023-03-22T05:34:34.645Z,17.06
2023-03-22T05:37:39.300Z,16.96
2023-03-22T05:40:44.291Z,16.95
2023-03-22T05:43:50.668Z,17.08
2023-03-22T05:46:53.923Z,17.29
2023-03-22T05:49:57.768Z,17.43
2023-03-22T05:53:01.190Z,16.84
2023-03-22T05:56:06.929Z,17.00
2023-03-22T05:59:10.753Z,17.22
2023-03-22T06:02:13.969Z,17.04
2023-03-22T06:05:18.202Z,16.76
2023-03-22T06:08:26.404Z,16.87
2023-03-22T06:11:29.831Z,16.91
2023-03-22T06:14:33.277Z,17.05
2023-03-22T06:17:36.988Z,17.08
2023-03-22T06:20:42.235Z,17.02
2023-03-22T06:23:46.343Z,16.94
2023-03-22T06:26:50.147Z,16.74
2023-03-22T06:29:53.842Z,16.94
2023-03-22T06:32:57.536Z,16.90
2023-03-22T06:36:01.644Z,17.11
2023-03-22T06:39:07.390Z,16.83
2023-03-22T06:42:11.095Z,17.06
2023-03-22T06:45:14.525Z,17.04
2023-03-22T06:48:18.934Z,16.83
2023-03-22T06:51:22.356Z,16.77
2023-03-22T06:54:25.770Z,16.76
2023-03-22T06:57:30.194Z,16.78
2023-03-22T07:00:34.375Z,16.96
2023-03-22T07:03:37.875Z,16.97
2023-03-22T07:06:41.207Z,16.82
2023-03-22T07:09:45.490Z,16.70
2023-03-22T07:12:50.079Z,16.91
2023-03-22T07:16:03.552Z,16.65
2023-03-22T07:19:07.125Z,16.83
2023-03-22T07:22:10.802Z,16.67
2023-03-22T07:25:14.660Z,16.47
2023-03-22T07:28:17.922Z,16.42
2023-03-22T07:31:21.207Z,16.48
2023-03-22T07:34:25.628Z,16.74
2023-03-22T07:37:29.076Z,16.73
2023-03-22T07:40:33.218Z,16.53
2023-03-22T07:43:52.751Z,16.63
2023-03-22T07:46:59.099Z,16.75
2023-03-22T07:50:03.192Z,16.74
2023-03-22T07:53:06.668Z,16.57
2023-03-22T07:56:10.323Z,16.56
2023-03-22T07:59:14.522Z,16.43
2023-03-22T08:02:19.071Z,16.48
2023-03-22T08:05:22.978Z,16.39
2023-03-22T08:08:26.958Z,16.43
2023-03-22T08:11:30.341Z,16.45
2023-03-22T08:14:36.781Z,16.43
2023-03-22T08:17:41.723Z,16.49
2023-03-22T08:20:45.216Z,16.05
2023-03-22T08:23:49.813Z,16.32
2023-03-22T08:26:53.386Z,16.41
2023-03-22T08:29:56.617Z,16.37
2023-03-22T08:33:00.766Z,16.35
2023-03-22T08:36:09.376Z,16.14
2023-03-22T08:39:12.621Z,16.43
2023-03-22T08:42:19.510Z,16.19
2023-03-22T08:45:23.120Z,16.17
2023-03-22T08:48:26.539Z,16.30
2023-03-22T08:51:30.008Z,16.41
2023-03-22T08:54:35.089Z,16.16
2023-03-22T08:57:39.032Z,16.28
2023-03-22T09:00:49.067Z,16.51
2023-03-22T09:03:53.056Z,16.26
2023-03-22T09:06:57.100Z,16.03
2023-03-22T09:10:01.099Z,16.20
2023-03-22T09:13:05.449Z,16.30
2023-03-22T09:16:09.220Z,16.34
2023-03-22T09:19:12.526Z,16.29
2023-03-22T09:22:17.758Z,16.03
2023-03-22T09:25:21.219Z,16.04
2023-03-22T09:28:24.557Z,16.29
2023-03-22T09:31:27.959Z,16.11
2023-03-22T09:34:31.720Z,16.15
2023-03-22T09:37:35.414Z,16.01
2023-03-22T09:40:57.527Z,15.98
2023-03-22T09:44:06.992Z,16.20
2023-03-22T09:47:17.587Z,16.28
2023-03-22T09:50:24.097Z,16.20
2023-03-22T09:53:29.330Z,16.30
2023-03-22T09:56:33.316Z,16.52
2023-03-22T09:59:59.552Z,16.52
2023-03-22T10:03:12.678Z,16.53
2023-03-22T10:06:21.180Z,16.56
2023-03-22T10:09:38.674Z,16.51
2023-03-22T10:13:06.608Z,16.51
2023-03-22T10:16:14.304Z,16.32
2023-03-22T10:19:44.935Z,16.04
2023-03-22T10:22:53.193Z,16.09
2023-03-22T10:25:58.510Z,16.28
2023-03-22T10:29:04.790Z,16.17
2023-03-22T10:32:57.175Z,16.11
2023-03-22T10:36:02.274Z,16.14
2023-03-22T10:39:55.432Z,16.59
2023-03-22T10:43:05.121Z,16.50
2023-03-22T10:46:15.589Z,16.69
2023-03-22T10:49:57.664Z,16.33
2023-03-22T10:53:09.859Z,16.08
2023-03-22T10:56:16.927Z,16.36
2023-03-22T10:59:53.420Z,16.50
2023-03-22T11:03:10.865Z,16.57
2023-03-22T11:06:25.552Z,16.49
2023-03-22T11:09:29.527Z,16.73
2023-03-22T11:12:33.117Z,16.58
2023-03-22T11:15:43.518Z,16.62
2023-03-22T11:18:47.265Z,16.48
2023-03-22T11:21:52.586Z,16.68
2023-03-22T11:24:57.702Z,16.65
2023-03-22T11:28:17.356Z,16.51
2023-03-22T11:31:22.754Z,16.69
2023-03-22T11:34:31.388Z,16.32
2023-03-22T11:37:34.802Z,16.33
2023-03-22T11:40:39.231Z,16.35
2023-03-22T11:43:47.893Z,16.60
2023-03-22T11:47:03.014Z,16.32
2023-03-22T11:50:10.481Z,16.35
2023-03-22T11:53:25.601Z,16.44
2023-03-22T11:56:32.364Z,16.45
2023-03-22T11:59:41.886Z,16.41
2023-03-22T12:02:51.437Z,16.42
2023-03-22T12:05:54.754Z,16.48
2023-03-22T12:09:21.676Z,16.46
2023-03-22T12:12:37.389Z,16.35
2023-03-22T12:15:43.642Z,16.46
2023-03-22T12:19:10.147Z,16.50
2023-03-22T12:22:27.331Z,16.74
2023-03-22T12:25:35.681Z,16.64
2023-03-22T12:28:41.404Z,16.70
2023-03-22T12:32:03.629Z,16.64
2023-03-22T12:35:34.720Z,16.73
2023-03-22T12:38:43.520Z,16.81
2023-03-22T12:41:51.929Z,16.89
2023-03-22T12:45:05.184Z,16.94
2023-03-22T12:48:20.344Z,16.65
2023-03-22T12:51:27.262Z,16.78
2023-03-22T12:54:30.682Z,16.86
2023-03-22T12:57:34.383Z,16.72
2023-03-22T13:00:55.952Z,16.53
2023-03-22T13:04:02.430Z,16.66
2023-03-22T13:07:15.131Z,16.84
2023-03-22T13:10:40.637Z,16.72
2023-03-22T13:13:52.497Z,16.68
2023-03-22T13:17:01.195Z,16.97
2023-03-22T13:20:07.623Z,16.94
2023-03-22T13:23:13.271Z,16.83
2023-03-22T13:26:18.123Z,16.79
2023-03-22T13:29:41.435Z,16.96
2023-03-22T13:32:59.357Z,17.15
2023-03-22T13:36:22.674Z,17.16
2023-03-22T13:39:26.288Z,17.10
2023-03-22T13:42:39.067Z,17.25
2023-03-22T13:46:13.961Z,17.30
2023-03-22T13:49:43.613Z,17.19
2023-03-22T13:52:59.293Z,17.37
2023-03-22T13:56:11.693Z,17.29
2023-03-22T13:59:28.807Z,17.57
2023-03-22T14:02:37.714Z,17.54
2023-03-22T14:05:41.552Z,17.65
2023-03-22T14:08:45.342Z,17.81
2023-03-22T14:12:10.891Z,17.58
2023-03-22T14:15:31.726Z,17.97
2023-03-22T14:18:38.393Z,17.95
2023-03-22T14:21:48.197Z,17.97
